Pagina principale
METAR-TAF:

METAR-TAF

Aeroporti :

Trapani, Italia

Aeroporto di Trapani-Birgi

latitudine: 37-55N, longitudine: 012-30E, altezza: 7 m

Osservazione

Il bollettino è stato emesso 1 ora e 10 minuti fa, alle 23:55 UTC
Vento 13 kt da ovest/sud-ovest
Temperature 14°C
Umidità 82%
Pressione 1020 hPa
Visibilità 10 km o più
Nubi sparse ad un'altezza di 2000 ft

METAR: LICT 162355Z 25013KT 9999 SCT020 14/11 Q1020 RMK SCT VIS MIN 9999 WIND THR13 25016KT BLU

Ora: 02:05 (01:05 UTC)

Previsione

Il bollettino è stato emesso 2 ore e 5 minuti fa, alle 23:00 UTC
Previsione valida dal 17 alle 00 UTC al 17 alle 09 UTC
Vento 13 kt da ovest
Visibilità 10 km o più
Nubi sparse ad un'altezza di 2000 ft
Temporaneamente
dal 17 alle 00 UTC al 17 alle 03 UTC
Vento 15 kt da ovest con raffiche fino a 25 kt

TAF: LICT 162300Z 1700/1709 27013KT 9999 SCT020 TEMPO 1700/1703 27015G25KT

Osservazioni e previsioni meteorologiche di più di 4000 aeroporti (messaggi METAR e TAF).

Le stazioni disponibili sono rappresentate dai dischi gialli e rossi sulla carta.

Puntare il mouse per vedere il nome della stazione.

Clicca sopra per visualizzare le osservazioni e previsioni meteorologiche.

Per cambiare la mappa : fare clic sui pulsanti verdi con una croce nera per ingrandire, il pulsante verde con un trattino per diminuire, o sulla freccia verde per le mappe adiacenti.


METAR-TAF: